Last 30 Days

Chimney Rock Rd (SLO-16)

Daily Data | America/Los_Angeles
as of 5/19/24 5:10 AM PDT
Date Daily Max Temp (°F) Time of Max Temp Daily Min Temp (°F) Time of Min Temp Daily Rain (In) Month Precip (In) Season Precip (In) Wind Spd (mph) Daily Max Wind (mph) Time of Max Wind Daily ETo (in) 7 Day ETo (in) Daily Solar Rad (Cal/cm2) Dew Pt (°F) Max RH (%) Min RH (%) Hrs 70-85F (hrs) Hrs > 95F (hrs) Powdery Mildew Stress (pts) GDDs (DL) GDDs (Mx/Mn) Seas GDDs (DL) Seas GDDs (Smpl) Max Inversion (°F) Max Inversion Time Min Inversion (°F) Min Inversion Time Max 1 Min Rain (In) Max 1 Min Rain Time Max 15 Min Rain (In) Max 15 Min Precip Time Max 60 Min Rain (In) Max 60 Min Rain Time Hrs <= 32F (hrs) Hrs <= 28F (hrs) Chilling <=45F (hrs) MinBV Day (V)
5/18/24 62.0 1506 42.6 0115 0.00 0.13 24.37 3.4 15.8 1728 0.142 1.31 610 47.6 99 66 0.00 0.00 90 3.4 2.3 358 302 3.2 0134 -5.0 1217 - - - - - - 0.0 0.0 1.5 12.4
5/17/24 65.9 1629 44.4 0101 0.00 0.13 24.37 2.6 11.8 1644 0.156 1.42 618 49.0 99 58 0.00 0.00 100 5.0 5.1 355 300 2.9 0109 -4.7 1525 - - - - - - 0.0 0.0 0.5 12.3
5/16/24 81.9 1527 43.1 0338 0.00 0.13 24.37 1.1 10.1 1847 0.204 1.50 675 50.6 99 42 6.97 0.00 100 10.0 12.5 350 294 3.4 2152 -4.6 1108 - - - - - - 0.0 0.0 2.4 12.3
5/15/24 81.8 1318 41.9 0541 0.00 0.13 24.37 1.4 11.1 1740 0.209 1.51 699 49.2 99 25 7.91 0.00 100 11.3 11.8 340 282 4.3 0737 -4.2 1253 - - - - - - 0.0 0.0 3.1 12.3
5/14/24 81.3 1347 41.8 0624 0.00 0.13 24.37 1.2 9.8 1525 0.209 1.50 698 48.2 99 30 8.17 0.00 100 11.8 11.6 329 270 4.1 2335 -4.7 1234 - - - - - - 0.0 0.0 4.8 12.2
5/13/24 82.2 1328 43.9 0615 0.00 0.13 24.37 1.3 11.5 1644 0.235 1.48 759 46.8 98 20 8.93 0.00 90 12.4 13.0 317 258 4.7 0745 -5.8 1129 - - - - - - 0.0 0.0 1.3 12.3
5/12/24 86.9 1506 45.6 0610 0.00 0.13 24.37 1.2 12.5 1618 0.152 1.43 456 47.9 93 21 5.24 0.00 100 15.7 16.3 304 245 8.1 0646 -5.9 1127 - - - - - - 0.0 0.0 0.0 12.3
5/11/24 86.0 1323 45.9 0630 0.00 0.13 24.37 2.1 13.2 1207 0.258 1.43 787 47.8 92 22 10.28 0.00 100 15.6 15.9 289 229 7.7 2233 -6.1 1303 - - - - - - 0.0 0.0 0.0 12.2
5/10/24 85.1 1415 41.9 0549 0.00 0.13 24.37 1.9 12.1 1711 0.233 1.23 732 45.9 96 20 9.18 0.00 80 13.6 13.5 273 213 9.6 2107 -5.9 1414 - - - - - - 0.0 0.0 4.1 12.3
5/9/24 76.8 1450 40.6 0553 0.00 0.13 24.37 2.1 14.5 1244 0.211 1.19 697 43.4 94 24 8.67 0.00 60 10.9 8.7 259 200 8.8 0415 -5.5 1120 - - - - - - 0.0 0.0 5.6 12.3
5/8/24 79.3 1704 38.4 0555 0.00 0.13 24.37 1.2 12.5 1307 0.201 1.19 703 41.4 98 19 7.20 0.00 40 11.2 8.8 248 191 9.8 2103 -6.9 1437 - - - - - - 0.0 0.0 6.2 12.3
5/7/24 76.9 1728 36.6 0541 0.00 0.13 24.37 1.5 11.1 1351 0.195 1.19 699 41.2 99 16 5.61 0.00 50 9.4 6.8 237 182 6.6 0047 -6.0 1219 - - - - - - 0.0 0.0 6.5 12.3
5/6/24 72.4 1641 32.3 0604 0.00 0.13 24.37 1.2 10.1 1300 0.181 1.19 692 39.0 99 24 2.49 0.00 60 6.7 2.3 228 175 5.9 0717 -6.4 1246 - - - - - - 0.0 0.0 9.2 12.3
5/5/24 63.7 1713 32.2 0607 0.00 0.13 24.37 1.7 13.2 1456 0.155 1.20 651 36.9 100 31 0.00 0.00 70 3.2 0.0 221 173 4.7 2041 -6.3 1409 - - - - - - 0.0 0.0 12.0 12.2
5/4/24 56.1 0845 37.3 0058 0.13 0.13 24.37 2.5 17.2 1350 0.055 1.22 257 45.3 99 74 0.00 0.00 80 0.9 0.0 218 173 4.6 0242 -2.8 1006 0.01 2038 0.02 1731 0.05 1642 0.0 0.0 10.2 12.2
5/3/24 80.1 1628 41.8 0633 0.00 0.00 24.24 1.2 10.5 1715 0.196 1.34 676 47.8 99 32 7.20 0.00 60 10.8 10.9 217 173 3.9 1920 -5.6 1413 - - - - - - 0.0 0.0 4.8 12.3
5/2/24 81.0 1641 39.4 0430 0.00 0.00 24.24 1.7 12.5 1124 0.204 1.28 676 43.1 94 22 8.14 0.00 0 12.3 10.2 206 162 9.6 0145 -5.0 1231 - - - - - - 0.0 0.0 6.0 12.3
5/1/24 79.4 1720 35.9 0614 0.00 0.00 24.24 1.8 11.1 1603 0.202 1.18 690 40.4 98 20 7.08 0.00 0 10.5 7.7 194 152 8.0 2014 -5.9 1220 - - - - - - 0.0 0.0 7.2 12.2
4/30/24 77.6 1600 36.0 0641 0.00 1.98 24.24 1.6 10.1 1309 0.195 1.06 682 42.1 98 25 6.04 0.00 0 9.3 6.8 184 144 9.2 0730 -6.0 1125 - - - - - - 0.0 0.0 6.9 12.3
4/29/24 75.3 1700 37.0 0615 0.00 1.98 24.24 1.8 12.1 1337 0.187 0.96 674 43.5 99 34 5.02 0.00 0 8.7 6.1 174 137 9.2 0722 -6.2 1255 - - - - - - 0.0 0.0 8.1 12.3
4/28/24 75.2 1641 37.5 0514 0.00 1.98 24.24 1.6 8.8 1453 0.183 0.93 668 45.6 99 38 4.68 0.00 0 8.5 6.4 166 131 6.9 2142 -5.0 1310 - - - - - - 0.0 0.0 6.7 12.3
4/27/24 72.0 1635 36.8 0428 0.00 1.98 24.24 1.2 10.8 1634 0.168 0.94 631 44.7 99 40 0.83 0.00 0 6.5 4.4 157 125 5.5 0328 -5.5 1311 - - - - - - 0.0 0.0 7.7 12.3
4/26/24 68.4 1635 40.4 0455 0.00 1.98 24.24 1.7 12.1 1647 0.140 0.96 532 45.1 99 40 0.00 0.00 0 5.5 4.4 150 120 5.2 0154 -6.1 1201 - - - - - - 0.0 0.0 6.5 12.3
4/25/24 65.0 1319 44.6 0101 0.00 1.98 24.24 1.3 12.5 1308 0.108 1.00 399 47.9 96 55 0.00 0.00 0 4.8 4.8 145 116 3.5 0053 -6.0 1151 - - - - - - 0.0 0.0 0.0 12.4
4/24/24 57.9 1739 37.2 0522 0.00 1.98 24.24 1.7 11.8 1511 0.083 1.07 348 45.0 100 70 0.00 0.00 0 2.1 0.0 140 111 3.3 0355 -3.7 1234 - - - - - - 0.0 0.0 6.7 12.3
4/23/24 58.0 1650 38.6 0043 0.00 1.98 24.24 2.7 13.2 1321 0.086 1.16 370 44.4 99 66 0.00 0.00 0 1.6 0.0 138 111 3.5 2108 -4.0 1316 - - - - - - 0.0 0.0 7.3 12.4
4/22/24 72.4 1227 40.6 0030 0.00 1.98 24.24 2.8 15.8 1348 0.164 1.25 642 49.3 99 53 0.81 0.00 0 6.2 6.5 136 111 11.1 0743 -4.4 1457 - - - - - - 0.0 0.0 2.3 12.3
4/21/24 82.9 1703 41.8 0647 0.00 1.98 24.24 1.2 8.8 1013 0.195 1.22 652 48.7 96 31 8.35 0.00 0 13.4 12.4 130 105 11.2 0751 -4.5 1144 - - - - - - 0.0 0.0 4.2 12.3
4/20/24 80.4 1640 40.6 0617 0.00 1.98 24.24 1.5 9.1 1248 0.187 1.14 648 49.1 100 34 6.96 0.00 0 11.0 10.5 117 92 8.4 2214 -4.8 1218 - - - - - - 0.0 0.0 4.7 12.3
4/19/24 76.4 1649 42.2 0455 0.00 1.98 24.24 0.9 7.4 1458 0.175 0.98 641 49.1 99 26 4.82 0.00 0 8.1 9.3 106 82 4.1 0856 -5.0 1334 - - - - - - 0.0 0.0 4.7 12.3
Max 86.9 - 45.9 - 0.13 1.98 24.37 3.4 17.2 - 0.258 1.51 787 50.6 100 74 10.28 0.00 - 15.7 16.3 - - 11.2 - -2.8 - - - - - - - 0.0 0.0 12.0 12.4
Avg - - - - - - - 1.7 - - - - - 45.5 - - 4.69 0.00 - 8.7 7.6 - - - - - - - - - - - - 0.0 0.0 5.0 -
Min 56.1 - 32.2 - 0.00 0.00 24.24 0.9 7.4 - 0.055 0.93 257 36.9 92 16 0.00 0.00 - 0.9 0.0 - - 2.9 - -6.9 - - - - - - - 0.0 0.0 0.0 12.2
Total - - - - - - - - - - - - - - - - 140.57 0.00 - 260.5 229.1 - - - - - - - - - - - - 0.0 0.0 151.2 -